Atalandi — SVBA — position and weather

sailwx.info

Track history (hours):
 
Tides and Currents Weather Stations Pressure Air Temp Water Temp Dewpoint Dewpoint Depression Visibility Wind Speed Wind Dir Waves Ship Positions

Atalandi

Last reported at 2014-Aug-30 18:24 UTC. Time now 2014-Aug-30 20:35 UTC.
Position N 36°18' E 013°36'.

Length 248 m; draft 8.5 m.

Type: Ship (hazmat cat C). MMSI: 240269000.

Date/timePositionNaut miles runAvg speedWind from/ knotsBaromVisibWave heightAir tempDewpointWater temp
2014-Aug-30 18:24N 36°18' E 013°36'4 1.2
2014-Aug-30 15:27N 36°22' E 013°34'7 1.1
2014-Aug-30 09:12N 36°28' E 013°30'5 1.2
2014-Aug-30 05:08N 36°31' E 013°25'1 1.2
2014-Aug-30 04:06N 36°32' E 013°24'1 1.2
2014-Aug-30 03:33N 36°32' E 013°24'1 1.3
2014-Aug-30 02:33N 36°33' E 013°22'1 1.5
2014-Aug-30 01:32N 36°33' E 013°20'2 1.4
2014-Aug-30 00:23N 36°34' E 013°18'2 1.4
2014-Aug-29 23:15N 36°34' E 013°16'1 1.3
2014-Aug-29 22:33N 36°34' E 013°15'1 1.2
2014-Aug-29 21:31N 36°34' E 013°14'1 1.2
2014-Aug-29 20:33N 36°34' E 013°12'1 1.3
2014-Aug-29 19:33N 36°35' E 013°11'7 7.0
2014-Aug-29 18:33N 36°37' E 013°03'1414.0
2014-Aug-29 17:32N 36°43' E 012°47'2013.7
2014-Aug-29 16:03N 36°52' E 012°23'713.3
2014-Aug-29 15:33N 36°54' E 012°16'1413.4
2014-Aug-29 14:33N 36°60' E 012°00'1413.7
2014-Aug-29 13:33N 37°07' E 011°46'1413.8
2014-Aug-29 12:33N 37°14' E 011°31'1413.7
2014-Aug-29 11:33N 37°20' E 011°16'2713.5
2014-Aug-29 09:32N 37°35' E 010°47'1613.7
2014-Aug-29 08:23N 37°42' E 010°29'1314.0
2014-Aug-29 07:29N 37°48' E 010°15'1313.9
2014-Aug-29 06:33N 37°55' E 010°01'1413.6
2014-Aug-29 05:33N 38°01' E 009°46'1413.5
2014-Aug-29 04:31N 38°08' E 009°30'1413.7
2014-Aug-29 03:32N 38°15' E 009°15'1413.4
2014-Aug-29 02:27N 38°22' E 008°60'1213.4
2014-Aug-29 01:33N 38°28' E 008°46'1413.3
2014-Aug-29 00:32N 38°34' E 008°30'1313.4
2014-Aug-28 23:33N 38°40' E 008°15'1413.7
2014-Aug-28 22:33N 38°46' E 007°60'1413.8
2014-Aug-28 21:33N 38°52' E 007°44'1313.4
2014-Aug-28 20:33N 38°58' E 007°29'1413.6
2014-Aug-28 19:33N 39°04' E 007°13'1913.7
2014-Aug-28 18:10N 39°13' E 006°51'6213.5
2014-Aug-28 13:32N 39°42' E 005°39'1413.5
2014-Aug-28 12:28N 39°48' E 005°23'6713.7
2014-Aug-28 07:33N 40°18' E 004°04'3913.1
2014-Aug-28 04:33N 40°31' E 003°15'1313.4
2014-Aug-28 03:33N 40°35' E 002°58'1413.6
2014-Aug-28 02:33N 40°40' E 002°41'1313.5
2014-Aug-28 01:33N 40°44' E 002°24'1413.7
2014-Aug-28 00:33N 40°49' E 002°07'1413.6
2014-Aug-27 23:33N 40°54' E 001°50'1413.3
2014-Aug-27 22:32N 40°58' E 001°33'1413.1
2014-Aug-27 21:30N 41°03' E 001°17'2 0.5
2014-Aug-27 17:14N 41°04' E 001°15'0 0.0
2014-Aug-27 16:32N 41°04' E 001°15'0 0.0
2014-Aug-27 15:32N 41°04' E 001°15'0 0.0
2014-Aug-27 14:17N 41°04' E 001°15'0 0.0
2014-Aug-27 12:26N 41°04' E 001°15'0 0.0
2014-Aug-27 09:29N 41°04' E 001°15'0 0.1
2014-Aug-27 08:26N 41°04' E 001°15'0 0.0
2014-Aug-27 07:29N 41°04' E 001°15'0 0.0
2014-Aug-27 06:29N 41°04' E 001°15'0 0.0
2014-Aug-27 05:29N 41°04' E 001°15'0 0.0
2014-Aug-27 02:28N 41°04' E 001°15'0 0.0
2014-Aug-27 01:28N 41°04' E 001°15'0 0.0
2014-Aug-27 00:07N 41°04' E 001°15'0 0.0
2014-Aug-26 23:28N 41°04' E 001°15'0 0.0
2014-Aug-26 22:19N 41°04' E 001°15'0 0.2
2014-Aug-26 21:31N 41°04' E 001°15'0 0.1
2014-Aug-26 20:31N 41°04' E 001°15'0 0.0
2014-Aug-26 19:31N 41°04' E 001°15'0 0.0
2014-Aug-26 18:33N 41°04' E 001°15'0 0.0
2014-Aug-26 17:31N 41°04' E 001°15'0 0.0
2014-Aug-26 16:30N 41°04' E 001°15'0 0.1
2014-Aug-26 14:33N 41°04' E 001°15'2 1.6
2014-Aug-26 13:34N 41°05' E 001°13'1 0.2
2014-Aug-26 10:20N 41°06' E 001°13'0 0.0
2014-Aug-26 09:15N 41°06' E 001°13'0 0.0
2014-Aug-25 23:17N 41°06' E 001°13'0 0.0
2014-Aug-25 21:28N 41°06' E 001°13'0 0.0
2014-Aug-25 19:21N 41°06' E 001°13'0 0.0
2014-Aug-25 17:15N 41°06' E 001°13'0 0.0
2014-Aug-25 16:07N 41°06' E 001°13'  
2014-Aug-22 17:33N 41°04' E 001°16'0 0.0
2014-Aug-22 05:27N 41°04' E 001°16'20 4.7
2014-Aug-22 01:11N 40°44' E 001°09'813.0
2014-Aug-22 00:33N 40°36' E 001°07'1312.7
2014-Aug-21 23:33N 40°24' E 001°04'1312.6
2014-Aug-21 22:33N 40°11' E 001°01'1212.3
2014-Aug-21 21:33N 39°59' E 000°58'1212.3
2014-Aug-21 20:33N 39°47' E 000°56'6712.6
2014-Aug-21 15:15N 38°42' E 000°38'7612.7
2014-Aug-21 09:15N 37°32' W 000°01'912.3
2014-Aug-21 08:32N 37°27' W 000°10'1312.5
2014-Aug-21 07:30N 37°19' W 000°23'2412.2
2014-Aug-21 05:33N 37°04' W 000°46'1512.4
2014-Aug-21 04:23N 36°55' W 001°00'1512.4
2014-Aug-21 03:08N 36°46' W 001°16'712.5
2014-Aug-21 02:32N 36°42' W 001°23'1412.5
2014-Aug-21 01:26N 36°33' W 001°37'  
Track history (hours):
 
Tides and Currents Weather Stations Pressure Air Temp Water Temp Dewpoint Dewpoint Depression Visibility Wind Speed Wind Dir Waves Ship Positions

Atalandi

Last reported at 2014-Aug-30 18:24 UTC. Time now 2014-Aug-30 20:35 UTC.
Position N 36°18' E 013°36'.

Length 248 m; draft 8.5 m.

Type: Ship (hazmat cat C). MMSI: 240269000.

Date/timePositionNaut miles runAvg speedWind from/ knotsBaromVisibWave heightAir tempDewpointWater temp
2014-Aug-30 18:24N 36°18' E 013°36'4 1.2
2014-Aug-30 15:27N 36°22' E 013°34'7 1.1
2014-Aug-30 09:12N 36°28' E 013°30'5 1.2
2014-Aug-30 05:08N 36°31' E 013°25'1 1.2
2014-Aug-30 04:06N 36°32' E 013°24'1 1.2
2014-Aug-30 03:33N 36°32' E 013°24'1 1.3
2014-Aug-30 02:33N 36°33' E 013°22'1 1.5
2014-Aug-30 01:32N 36°33' E 013°20'2 1.4
2014-Aug-30 00:23N 36°34' E 013°18'2 1.4
2014-Aug-29 23:15N 36°34' E 013°16'1 1.3
2014-Aug-29 22:33N 36°34' E 013°15'1 1.2
2014-Aug-29 21:31N 36°34' E 013°14'1 1.2
2014-Aug-29 20:33N 36°34' E 013°12'1 1.3
2014-Aug-29 19:33N 36°35' E 013°11'7 7.0
2014-Aug-29 18:33N 36°37' E 013°03'1414.0
2014-Aug-29 17:32N 36°43' E 012°47'2013.7
2014-Aug-29 16:03N 36°52' E 012°23'713.3
2014-Aug-29 15:33N 36°54' E 012°16'1413.4
2014-Aug-29 14:33N 36°60' E 012°00'1413.7
2014-Aug-29 13:33N 37°07' E 011°46'1413.8
2014-Aug-29 12:33N 37°14' E 011°31'1413.7
2014-Aug-29 11:33N 37°20' E 011°16'2713.5
2014-Aug-29 09:32N 37°35' E 010°47'1613.7
2014-Aug-29 08:23N 37°42' E 010°29'1314.0
2014-Aug-29 07:29N 37°48' E 010°15'1313.9
2014-Aug-29 06:33N 37°55' E 010°01'1413.6
2014-Aug-29 05:33N 38°01' E 009°46'1413.5
2014-Aug-29 04:31N 38°08' E 009°30'1413.7
2014-Aug-29 03:32N 38°15' E 009°15'1413.4
2014-Aug-29 02:27N 38°22' E 008°60'1213.4
2014-Aug-29 01:33N 38°28' E 008°46'1413.3
2014-Aug-29 00:32N 38°34' E 008°30'1313.4
2014-Aug-28 23:33N 38°40' E 008°15'1413.7
2014-Aug-28 22:33N 38°46' E 007°60'1413.8
2014-Aug-28 21:33N 38°52' E 007°44'1313.4
2014-Aug-28 20:33N 38°58' E 007°29'1413.6
2014-Aug-28 19:33N 39°04' E 007°13'1913.7
2014-Aug-28 18:10N 39°13' E 006°51'6213.5
2014-Aug-28 13:32N 39°42' E 005°39'1413.5
2014-Aug-28 12:28N 39°48' E 005°23'6713.7
2014-Aug-28 07:33N 40°18' E 004°04'3913.1
2014-Aug-28 04:33N 40°31' E 003°15'1313.4
2014-Aug-28 03:33N 40°35' E 002°58'1413.6
2014-Aug-28 02:33N 40°40' E 002°41'1313.5
2014-Aug-28 01:33N 40°44' E 002°24'1413.7
2014-Aug-28 00:33N 40°49' E 002°07'1413.6
2014-Aug-27 23:33N 40°54' E 001°50'1413.3
2014-Aug-27 22:32N 40°58' E 001°33'1413.1
2014-Aug-27 21:30N 41°03' E 001°17'2 0.5
2014-Aug-27 17:14N 41°04' E 001°15'0 0.0
2014-Aug-27 16:32N 41°04' E 001°15'0 0.0
2014-Aug-27 15:32N 41°04' E 001°15'0 0.0
2014-Aug-27 14:17N 41°04' E 001°15'0 0.0
2014-Aug-27 12:26N 41°04' E 001°15'0 0.0
2014-Aug-27 09:29N 41°04' E 001°15'0 0.1
2014-Aug-27 08:26N 41°04' E 001°15'0 0.0
2014-Aug-27 07:29N 41°04' E 001°15'0 0.0
2014-Aug-27 06:29N 41°04' E 001°15'0 0.0
2014-Aug-27 05:29N 41°04' E 001°15'0 0.0
2014-Aug-27 02:28N 41°04' E 001°15'0 0.0
2014-Aug-27 01:28N 41°04' E 001°15'0 0.0
2014-Aug-27 00:07N 41°04' E 001°15'0 0.0
2014-Aug-26 23:28N 41°04' E 001°15'0 0.0
2014-Aug-26 22:19N 41°04' E 001°15'0 0.2
2014-Aug-26 21:31N 41°04' E 001°15'0 0.1
2014-Aug-26 20:31N 41°04' E 001°15'0 0.0
2014-Aug-26 19:31N 41°04' E 001°15'0 0.0
2014-Aug-26 18:33N 41°04' E 001°15'0 0.0
2014-Aug-26 17:31N 41°04' E 001°15'0 0.0
2014-Aug-26 16:30N 41°04' E 001°15'0 0.1
2014-Aug-26 14:33N 41°04' E 001°15'2 1.6
2014-Aug-26 13:34N 41°05' E 001°13'1 0.2
2014-Aug-26 10:20N 41°06' E 001°13'0 0.0
2014-Aug-26 09:15N 41°06' E 001°13'0 0.0
2014-Aug-25 23:17N 41°06' E 001°13'0 0.0
2014-Aug-25 21:28N 41°06' E 001°13'0 0.0
2014-Aug-25 19:21N 41°06' E 001°13'0 0.0
2014-Aug-25 17:15N 41°06' E 001°13'0 0.0
2014-Aug-25 16:07N 41°06' E 001°13'  
2014-Aug-22 17:33N 41°04' E 001°16'0 0.0
2014-Aug-22 05:27N 41°04' E 001°16'20 4.7
2014-Aug-22 01:11N 40°44' E 001°09'813.0
2014-Aug-22 00:33N 40°36' E 001°07'1312.7
2014-Aug-21 23:33N 40°24' E 001°04'1312.6
2014-Aug-21 22:33N 40°11' E 001°01'1212.3
2014-Aug-21 21:33N 39°59' E 000°58'1212.3
2014-Aug-21 20:33N 39°47' E 000°56'6712.6
2014-Aug-21 15:15N 38°42' E 000°38'7612.7
2014-Aug-21 09:15N 37°32' W 000°01'912.3
2014-Aug-21 08:32N 37°27' W 000°10'1312.5
2014-Aug-21 07:30N 37°19' W 000°23'2412.2
2014-Aug-21 05:33N 37°04' W 000°46'1512.4
2014-Aug-21 04:23N 36°55' W 001°00'1512.4
2014-Aug-21 03:08N 36°46' W 001°16'712.5
2014-Aug-21 02:32N 36°42' W 001°23'1412.5
2014-Aug-21 01:26N 36°33' W 001°37'  

Dump ship's entire track history